createdAt,value
2023-03-29T00:03:02.161Z,70.93
2023-03-29T00:08:05.191Z,71.09
2023-03-29T00:13:08.448Z,71.08
2023-03-29T00:18:11.347Z,71.34
2023-03-29T00:23:14.381Z,71.49
2023-03-29T00:28:17.115Z,71.30
2023-03-29T00:33:23.253Z,71.42
2023-03-29T00:38:26.161Z,71.56
2023-03-29T00:43:30.350Z,71.79
2023-03-29T00:48:33.164Z,71.76
2023-03-29T00:53:39.751Z,71.96
2023-03-29T00:58:57.327Z,72.05
2023-03-29T01:04:18.049Z,72.29
2023-03-29T01:09:27.061Z,72.57
2023-03-29T01:14:35.228Z,72.80
2023-03-29T01:19:46.189Z,73.11
2023-03-29T01:25:14.665Z,73.31
2023-03-29T01:30:49.398Z,73.19
2023-03-29T01:36:00.178Z,73.05
2023-03-29T01:41:06.034Z,73.04
2023-03-29T01:46:25.117Z,73.06
2023-03-29T01:51:51.348Z,73.09
2023-03-29T01:56:57.322Z,73.35
2023-03-29T02:02:05.014Z,73.62
2023-03-29T02:07:09.316Z,74.12
2023-03-29T02:12:13.625Z,74.42
2023-03-29T02:17:22.134Z,74.79
2023-03-29T02:22:30.572Z,75.08
2023-03-29T02:27:33.526Z,75.46
2023-03-29T02:33:05.979Z,75.56
2023-03-29T02:38:11.410Z,75.70
2023-03-29T02:43:16.197Z,76.06
2023-03-29T02:48:22.320Z,76.27
2023-03-29T02:53:30.733Z,76.50
2023-03-29T02:58:33.514Z,76.74
2023-03-29T03:03:36.628Z,77.27
2023-03-29T03:08:40.107Z,77.52
2023-03-29T03:13:43.338Z,77.77
2023-03-29T03:18:46.275Z,77.82
2023-03-29T03:23:49.431Z,77.73
2023-03-29T03:28:52.174Z,77.85
2023-03-29T03:33:55.392Z,78.02
2023-03-29T03:38:58.191Z,78.38
2023-03-29T03:44:01.011Z,78.51
2023-03-29T03:49:04.605Z,78.63
2023-03-29T03:54:07.353Z,78.77
2023-03-29T03:59:10.920Z,79.05
2023-03-29T04:04:14.605Z,79.27
2023-03-29T04:09:18.141Z,79.75
2023-03-29T04:14:21.639Z,80.01
2023-03-29T04:19:24.425Z,80.00
2023-03-29T04:24:27.276Z,80.10
2023-03-29T04:29:30.460Z,80.67
2023-03-29T04:34:33.218Z,81.08
2023-03-29T04:39:39.188Z,81.32
2023-03-29T04:44:43.680Z,81.60
2023-03-29T04:49:46.569Z,81.67
2023-03-29T04:54:49.305Z,81.89
2023-03-29T04:59:52.066Z,81.87
2023-03-29T05:04:54.836Z,82.06
2023-03-29T05:09:57.870Z,82.31
2023-03-29T05:15:00.635Z,82.08
2023-03-29T05:20:13.244Z,82.05
2023-03-29T05:25:17.672Z,82.26
2023-03-29T05:30:20.691Z,82.23
2023-03-29T05:35:25.527Z,82.11
2023-03-29T05:40:29.615Z,81.82
2023-03-29T05:45:33.620Z,81.73
2023-03-29T05:50:37.294Z,81.55
2023-03-29T05:55:40.714Z,81.27
2023-03-29T06:00:43.866Z,73.15
2023-03-29T06:05:56.442Z,64.53
2023-03-29T06:11:04.526Z,54.46
2023-03-29T06:16:10.231Z,48.81
2023-03-29T06:21:16.106Z,43.22
2023-03-29T06:26:19.232Z,38.92
2023-03-29T06:31:22.155Z,36.68
2023-03-29T06:36:25.968Z,39.76
2023-03-29T06:41:46.864Z,43.84
2023-03-29T06:47:02.110Z,47.92
2023-03-29T06:52:07.726Z,50.70
2023-03-29T06:57:10.599Z,53.27
2023-03-29T07:02:13.457Z,55.65
2023-03-29T07:07:22.763Z,57.67
2023-03-29T07:12:26.451Z,58.31
2023-03-29T07:17:29.284Z,60.00
2023-03-29T07:22:33.364Z,56.90
2023-03-29T07:27:37.472Z,48.35
2023-03-29T07:32:44.367Z,43.76
2023-03-29T07:38:16.532Z,39.69
2023-03-29T07:43:18.378Z,40.81
2023-03-29T07:48:21.237Z,43.19
2023-03-29T07:53:24.621Z,43.92
2023-03-29T07:58:31.016Z,43.49
2023-03-29T08:03:35.487Z,41.06
2023-03-29T08:08:38.406Z,39.67
2023-03-29T08:13:42.252Z,38.02
2023-03-29T08:18:45.995Z,37.04
2023-03-29T08:23:49.906Z,36.46
2023-03-29T08:28:53.396Z,35.79
2023-03-29T08:33:56.503Z,35.53
2023-03-29T08:38:59.728Z,35.29
2023-03-29T08:44:20.791Z,35.97
2023-03-29T08:49:24.146Z,36.10
2023-03-29T08:54:33.318Z,33.05
2023-03-29T08:59:37.492Z,31.79
2023-03-29T09:04:42.569Z,33.07
2023-03-29T09:09:45.636Z,33.84
2023-03-29T09:15:02.007Z,34.65
2023-03-29T09:20:19.358Z,35.20
2023-03-29T09:26:01.024Z,33.55
2023-03-29T09:31:15.113Z,34.95
2023-03-29T09:36:43.630Z,35.33
2023-03-29T09:42:02.061Z,35.86
2023-03-29T09:47:18.847Z,36.82
2023-03-29T09:52:31.869Z,37.97
2023-03-29T09:57:35.300Z,38.48
2023-03-29T10:02:38.373Z,39.75
2023-03-29T10:08:09.119Z,39.69
2023-03-29T10:13:43.653Z,40.35
2023-03-29T10:18:47.431Z,39.32
2023-03-29T10:23:58.476Z,38.57
2023-03-29T10:29:03.960Z,37.50
2023-03-29T10:34:09.286Z,36.56
2023-03-29T10:39:16.398Z,37.19
2023-03-29T10:44:33.317Z,37.92
2023-03-29T10:49:41.847Z,37.21
2023-03-29T10:54:45.693Z,38.50
2023-03-29T11:00:14.883Z,40.23
2023-03-29T11:05:31.467Z,39.65
2023-03-29T11:11:04.452Z,39.44
2023-03-29T11:16:25.996Z,38.63
2023-03-29T11:22:01.853Z,38.06
2023-03-29T11:27:35.011Z,38.70
2023-03-29T11:32:56.819Z,39.36
2023-03-29T11:38:12.260Z,38.84
2023-03-29T11:43:26.312Z,39.95
2023-03-29T11:48:36.294Z,38.01
2023-03-29T11:53:51.910Z,38.50
2023-03-29T11:59:01.472Z,37.48
2023-03-29T12:04:13.146Z,36.90
2023-03-29T12:09:27.778Z,36.09
2023-03-29T12:14:40.250Z,36.94
2023-03-29T12:20:04.627Z,38.45
2023-03-29T12:25:12.884Z,38.81
2023-03-29T12:30:33.836Z,39.41
2023-03-29T12:35:49.063Z,38.30
2023-03-29T12:41:00.651Z,39.05
2023-03-29T12:46:24.619Z,38.58
2023-03-29T12:51:35.743Z,37.47
2023-03-29T12:56:54.722Z,37.25
2023-03-29T13:02:04.338Z,36.79
2023-03-29T13:07:16.962Z,36.88
2023-03-29T13:12:24.633Z,37.91
2023-03-29T13:18:04.200Z,38.08
2023-03-29T13:23:19.209Z,37.79
2023-03-29T13:28:40.359Z,38.41
2023-03-29T13:33:48.871Z,38.45
2023-03-29T13:38:54.297Z,38.18
2023-03-29T13:43:58.004Z,39.09
2023-03-29T13:49:13.201Z,38.74
2023-03-29T13:54:40.756Z,39.82
2023-03-29T13:59:50.719Z,39.70
2023-03-29T14:04:54.113Z,39.92
2023-03-29T14:09:59.364Z,39.98
2023-03-29T14:15:05.471Z,40.50
2023-03-29T14:20:11.759Z,40.95
2023-03-29T14:25:17.939Z,41.37
2023-03-29T14:30:29.105Z,41.67
2023-03-29T14:35:33.443Z,42.19
2023-03-29T14:40:36.651Z,42.11
2023-03-29T14:45:39.641Z,42.08
2023-03-29T14:50:45.529Z,42.06
2023-03-29T14:55:53.560Z,42.48
2023-03-29T15:00:56.578Z,42.50
2023-03-29T15:06:03.936Z,42.18
2023-03-29T15:11:18.211Z,42.02
2023-03-29T15:16:30.585Z,43.04
2023-03-29T15:21:36.076Z,43.27
2023-03-29T15:26:38.942Z,43.12
2023-03-29T15:31:42.433Z,43.20
2023-03-29T15:36:46.475Z,43.77
2023-03-29T15:41:51.638Z,44.69
2023-03-29T15:46:55.650Z,45.09
2023-03-29T15:52:00.501Z,45.46
2023-03-29T15:57:07.365Z,45.92
2023-03-29T16:02:24.527Z,46.42
2023-03-29T16:07:27.406Z,47.09
2023-03-29T16:12:30.342Z,47.40
2023-03-29T16:17:33.900Z,47.96
2023-03-29T16:22:37.087Z,48.16
2023-03-29T16:27:40.187Z,48.86
2023-03-29T16:32:43.336Z,49.11
2023-03-29T16:37:46.167Z,49.32
2023-03-29T16:42:48.951Z,49.35
2023-03-29T16:47:51.886Z,49.80
2023-03-29T16:52:54.804Z,50.25
2023-03-29T16:57:57.668Z,50.55
2023-03-29T17:03:03.326Z,50.66
2023-03-29T17:08:06.725Z,51.08
2023-03-29T17:13:10.012Z,51.58
2023-03-29T17:18:14.359Z,51.86
2023-03-29T17:23:18.150Z,52.26
2023-03-29T17:28:25.803Z,52.75
2023-03-29T17:33:29.043Z,52.93
2023-03-29T17:38:34.200Z,53.52
2023-03-29T17:43:39.543Z,53.72
2023-03-29T17:48:46.282Z,53.97
2023-03-29T17:53:50.010Z,54.29
2023-03-29T17:58:52.857Z,54.57
2023-03-29T18:03:55.634Z,54.87
2023-03-29T18:09:03.113Z,54.80
2023-03-29T18:14:06.147Z,54.96
2023-03-29T18:19:10.751Z,55.28
2023-03-29T18:24:13.591Z,55.47
2023-03-29T18:29:16.433Z,55.69
2023-03-29T18:34:19.238Z,55.90
2023-03-29T18:39:22.113Z,56.13
2023-03-29T18:44:27.417Z,56.16
2023-03-29T18:49:30.233Z,56.10
2023-03-29T18:54:32.962Z,56.21
2023-03-29T18:59:38.594Z,56.61
2023-03-29T19:04:41.377Z,56.69
2023-03-29T19:09:44.439Z,56.91
2023-03-29T19:14:47.191Z,56.97
2023-03-29T19:19:50.005Z,56.95
2023-03-29T19:24:52.769Z,57.01
2023-03-29T19:29:55.671Z,56.75
2023-03-29T19:34:58.571Z,56.66
2023-03-29T19:40:01.284Z,56.91
2023-03-29T19:45:06.116Z,56.99
2023-03-29T19:50:09.303Z,57.28
2023-03-29T19:55:12.744Z,57.54
2023-03-29T20:00:15.973Z,57.89
2023-03-29T20:05:19.078Z,57.92
2023-03-29T20:10:22.398Z,58.12
2023-03-29T20:15:26.044Z,58.64
2023-03-29T20:20:29.967Z,58.95
2023-03-29T20:25:35.035Z,59.59
2023-03-29T20:30:37.778Z,59.82
2023-03-29T20:35:40.591Z,60.07
2023-03-29T20:40:43.395Z,60.31
2023-03-29T20:45:53.860Z,59.69
2023-03-29T20:50:57.798Z,59.36
2023-03-29T20:56:00.642Z,59.03
2023-03-29T21:01:03.806Z,58.55
2023-03-29T21:06:07.341Z,58.18
2023-03-29T21:11:13.116Z,57.71
2023-03-29T21:16:15.950Z,57.33
2023-03-29T21:21:18.737Z,56.88
2023-03-29T21:26:23.590Z,56.60
2023-03-29T21:31:26.463Z,56.31
2023-03-29T21:36:29.326Z,56.40
2023-03-29T21:41:32.304Z,56.69
2023-03-29T21:46:35.151Z,56.51
2023-03-29T21:51:38.136Z,56.50
2023-03-29T21:56:40.978Z,56.76
2023-03-29T22:01:43.832Z,56.70
2023-03-29T22:06:47.070Z,56.26
2023-03-29T22:11:50.217Z,56.72
2023-03-29T22:16:53.030Z,56.57
2023-03-29T22:22:01.688Z,56.47
2023-03-29T22:27:04.501Z,56.85
2023-03-29T22:32:07.361Z,56.52
2023-03-29T22:37:10.294Z,56.19
2023-03-29T22:42:13.198Z,56.00
2023-03-29T22:47:16.524Z,56.37
2023-03-29T22:52:19.260Z,56.67
2023-03-29T22:57:22.038Z,56.89
2023-03-29T23:02:24.882Z,57.18
2023-03-29T23:07:28.392Z,57.26
2023-03-29T23:12:31.215Z,57.61
2023-03-29T23:17:34.982Z,57.90
2023-03-29T23:22:39.728Z,58.27
2023-03-29T23:27:43.313Z,58.44
2023-03-29T23:32:46.978Z,58.83
2023-03-29T23:37:49.811Z,59.44
2023-03-29T23:42:59.342Z,59.70
2023-03-29T23:48:02.263Z,60.00
2023-03-29T23:53:05.100Z,60.05
2023-03-29T23:58:08.232Z,60.54
